Time;durP1;ratioP1;P1;durP2;ratioP2;P2;SDS_P1;SDS_P2;PMS_P1;PMS_P2;Temp;Humidity;BMP_temperature;BMP_pressure;BME280_temperature;BME280_humidity;BME280_pressure;Samples;Min_cycle;Max_cycle;Signal;HPM_P1;HPM_P2
2021/04/13 00:00:20;;;;;;;;;53.75;41.25;;;;;;;;12529828;28;8847;-55
2021/04/13 00:06:30;;;;;;;;;55.00;42.00;;;;;;;;12530708;28;8836;-56
2021/04/13 00:12:33;;;;;;;;;44.75;40.00;;;;;;;;12530470;28;8836;-56
2021/04/13 00:18:35;;;;;;;;;53.50;46.50;;;;;;;;12530351;28;8864;-56
2021/04/13 00:24:36;;;;;;;;;53.50;43.00;;;;;;;;12530347;28;8856;-56
2021/04/13 00:31:00;;;;;;;;;54.25;47.00;;;;;;;;12528319;28;8868;-55
2021/04/13 00:37:31;;;;;;;;;59.25;48.50;;;;;;;;12529591;28;8922;-56
2021/04/13 00:43:34;;;;;;;;;61.75;50.50;;;;;;;;12528435;28;8876;-54
2021/04/13 00:49:41;;;;;;;;;62.00;53.00;;;;;;;;12529716;28;9678;-55
2021/04/13 00:55:48;;;;;;;;;63.00;51.75;;;;;;;;12527958;28;8868;-55
2021/04/13 01:01:59;;;;;;;;;70.00;56.50;;;;;;;;12528431;28;8929;-55
2021/04/13 01:08:15;;;;;;;;;74.25;58.25;;;;;;;;12528712;28;9041;-56
2021/04/13 01:14:18;;;;;;;;;71.00;56.50;;;;;;;;12528121;28;8852;-54
2021/04/13 01:20:23;;;;;;;;;78.50;61.25;;;;;;;;12528913;28;8872;-54
2021/04/13 01:26:31;;;;;;;;;73.75;57.75;;;;;;;;12527660;28;8840;-56
2021/04/13 01:32:33;;;;;;;;;71.25;54.25;;;;;;;;12528034;28;8852;-56
2021/04/13 01:38:42;;;;;;;;;71.00;56.50;;;;;;;;12528002;28;8833;-55
2021/04/13 01:44:49;;;;;;;;;66.50;56.00;;;;;;;;12527176;28;9076;-56
2021/04/13 01:51:00;;;;;;;;;69.75;55.25;;;;;;;;12527887;28;8844;-56
2021/04/13 01:57:29;;;;;;;;;66.25;54.25;;;;;;;;12531292;28;8828;-56
2021/04/13 02:03:44;;;;;;;;;65.75;54.50;;;;;;;;12536751;28;8860;-56
2021/04/13 02:09:50;;;;;;;;;68.25;53.75;;;;;;;;12536402;28;8859;-55
2021/04/13 02:16:02;;;;;;;;;78.00;57.75;;;;;;;;12536295;28;9005;-55
2021/04/13 02:22:08;;;;;;;;;62.75;51.00;;;;;;;;12535705;28;9585;-55
2021/04/13 02:28:15;;;;;;;;;71.75;57.00;;;;;;;;12535221;28;8846;-55
2021/04/13 02:34:36;;;;;;;;;64.75;52.50;;;;;;;;12535303;28;8910;-55
2021/04/13 02:40:51;;;;;;;;;64.25;54.75;;;;;;;;12534874;28;8863;-55
2021/04/13 02:46:57;;;;;;;;;59.50;49.00;;;;;;;;12535175;28;8828;-55
2021/04/13 02:53:01;;;;;;;;;66.25;55.50;;;;;;;;12533424;28;8959;-55
2021/04/13 02:59:11;;;;;;;;;65.00;53.25;;;;;;;;12533648;28;8855;-56
2021/04/13 03:05:20;;;;;;;;;67.00;52.00;;;;;;;;12533251;28;10306;-55
2021/04/13 03:11:25;;;;;;;;;65.00;51.75;;;;;;;;12532429;28;8851;-56
2021/04/13 03:17:30;;;;;;;;;65.75;55.00;;;;;;;;12532623;28;8848;-56
2021/04/13 03:23:32;;;;;;;;;64.00;51.50;;;;;;;;12532728;28;9663;-56
2021/04/13 03:29:40;;;;;;;;;66.00;55.00;;;;;;;;12533046;28;8856;-56
2021/04/13 03:35:42;;;;;;;;;61.25;50.50;;;;;;;;12531277;28;9617;-56
2021/04/13 03:41:47;;;;;;;;;65.25;53.25;;;;;;;;12532541;28;8836;-55
2021/04/13 03:47:48;;;;;;;;;66.00;52.00;;;;;;;;12531916;28;8844;-56
2021/04/13 03:53:50;;;;;;;;;60.25;48.50;;;;;;;;12531574;28;8844;-55
2021/04/13 03:59:55;;;;;;;;;62.25;48.00;;;;;;;;12532950;28;8943;-57
2021/04/13 04:05:58;;;;;;;;;69.00;55.00;;;;;;;;12963740;22;8877;-52
2021/04/13 04:12:13;;;;;;;;;71.25;56.00;;;;;;;;12499712;28;8987;-51
2021/04/13 04:18:20;;;;;;;;;72.00;57.25;;;;;;;;12533821;28;8832;-51
2021/04/13 04:24:43;;;;;;;;;69.00;55.75;;;;;;;;12528562;28;8840;-55
2021/04/13 04:30:44;;;;;;;;;73.25;57.75;;;;;;;;12509819;28;8843;-53
2021/04/13 04:36:54;;;;;;;;;76.00;57.75;;;;;;;;12483963;28;9602;-55
2021/04/13 04:43:02;;;;;;;;;61.00;50.00;;;;;;;;12484292;28;8842;-53
2021/04/13 04:49:11;;;;;;;;;67.25;55.50;;;;;;;;12484011;28;9468;-50
2021/04/13 04:55:14;;;;;;;;;59.75;46.50;;;;;;;;12484298;28;8870;-54
2021/04/13 05:01:15;;;;;;;;;67.75;53.75;;;;;;;;12492925;28;8866;-54
2021/04/13 05:07:17;;;;;;;;;68.50;56.50;;;;;;;;12498435;28;8855;-51
2021/04/13 05:13:20;;;;;;;;;70.00;55.50;;;;;;;;12501777;28;8860;-55
2021/04/13 05:19:22;;;;;;;;;70.75;55.25;;;;;;;;12514697;28;8867;-51
2021/04/13 05:25:25;;;;;;;;;73.25;56.00;;;;;;;;12484305;28;8887;-56
2021/04/13 05:31:26;;;;;;;;;73.50;57.00;;;;;;;;12485877;28;8853;-52
2021/04/13 05:37:29;;;;;;;;;69.00;55.25;;;;;;;;12492819;28;8839;-56
2021/04/13 05:43:31;;;;;;;;;68.75;56.50;;;;;;;;12490925;28;9587;-56
2021/04/13 05:49:33;;;;;;;;;60.50;50.00;;;;;;;;12491309;28;8862;-56
2021/04/13 05:55:35;;;;;;;;;66.25;55.25;;;;;;;;12491652;28;8839;-54
2021/04/13 06:01:36;;;;;;;;;63.00;52.25;;;;;;;;12490231;28;8847;-55
2021/04/13 06:07:38;;;;;;;;;64.00;53.25;;;;;;;;12494620;28;9344;-59
2021/04/13 06:13:39;;;;;;;;;65.00;52.75;;;;;;;;12537468;28;8856;-57
2021/04/13 06:19:41;;;;;;;;;68.00;53.25;;;;;;;;12539428;28;8832;-56
2021/04/13 06:25:43;;;;;;;;;57.50;48.00;;;;;;;;12498524;28;8879;-55
2021/04/13 06:31:44;;;;;;;;;66.25;53.50;;;;;;;;12489950;28;8839;-56
2021/04/13 06:37:48;;;;;;;;;64.25;51.75;;;;;;;;12489064;28;8866;-57
2021/04/13 06:44:08;;;;;;;;;61.75;49.25;;;;;;;;12486158;28;8867;-56
2021/04/13 06:50:28;;;;;;;;;60.25;48.75;;;;;;;;12488305;28;8850;-52
2021/04/13 06:56:53;;;;;;;;;56.00;47.50;;;;;;;;12489734;28;8839;-56
2021/04/13 07:03:19;;;;;;;;;55.50;45.50;;;;;;;;12487735;28;9575;-53
2021/04/13 07:09:29;;;;;;;;;44.25;40.50;;;;;;;;12499042;28;8823;-58
2021/04/13 07:15:39;;;;;;;;;46.50;38.50;;;;;;;;12517918;28;8952;-54
2021/04/13 07:22:02;;;;;;;;;44.75;40.50;;;;;;;;12488740;28;9563;-53
2021/04/13 07:28:09;;;;;;;;;48.00;39.33;;;;;;;;12490146;28;8890;-56
2021/04/13 07:34:11;;;;;;;;;45.75;38.25;;;;;;;;12502926;28;8877;-57
2021/04/13 07:40:19;;;;;;;;;32.33;31.33;;;;;;;;12487450;28;8886;-56
2021/04/13 07:46:44;;;;;;;;;35.67;33.67;;;;;;;;12485407;28;8846;-56
2021/04/13 07:52:52;;;;;;;;;32.33;28.67;;;;;;;;12486957;28;8827;-55
2021/04/13 07:58:57;;;;;;;;;24.33;23.00;;;;;;;;12486274;28;8874;-58
2021/04/13 08:04:59;;;;;;;;;35.67;33.67;;;;;;;;12486261;28;8885;-54
2021/04/13 08:11:21;;;;;;;;;29.00;27.67;;;;;;;;12485762;28;8865;-60
2021/04/13 08:18:12;;;;;;;;;31.00;28.00;;;;;;;;12536274;28;8832;-53
2021/04/13 08:24:39;;;;;;;;;31.00;28.33;;;;;;;;12499500;28;8899;-56
2021/04/13 08:37:47;;;;;;;;;22.00;20.67;;;;;;;;12483726;28;9323;-54
2021/04/13 08:44:03;;;;;;;;;28.67;25.33;;;;;;;;12484865;28;8851;-56
2021/04/13 08:50:19;;;;;;;;;28.33;25.67;;;;;;;;12484096;28;8831;-57
2021/04/13 08:56:23;;;;;;;;;23.67;21.33;;;;;;;;12483667;28;9537;-58
2021/04/13 09:02:38;;;;;;;;;28.50;24.00;;;;;;;;12482881;28;8870;-57
2021/04/13 09:08:54;;;;;;;;;21.00;19.67;;;;;;;;12479659;28;10150;-52
2021/04/13 09:15:01;;;;;;;;;24.33;22.67;;;;;;;;12512209;28;8844;-58
2021/04/13 09:21:20;;;;;;;;;18.00;15.67;;;;;;;;12522891;28;8847;-59
2021/04/13 09:27:30;;;;;;;;;19.67;19.00;;;;;;;;12515656;28;8856;-58
2021/04/13 09:33:44;;;;;;;;;17.00;16.67;;;;;;;;12528798;28;8828;-57
2021/04/13 09:40:22;;;;;;;;;14.00;14.00;;;;;;;;12529007;28;8895;-57
2021/04/13 09:46:34;;;;;;;;;16.00;16.00;;;;;;;;12529269;28;8848;-55
2021/04/13 09:53:11;;;;;;;;;21.00;16.67;;;;;;;;12528625;28;8901;-58
2021/04/13 09:59:50;;;;;;;;;16.67;13.00;;;;;;;;12529167;28;8891;-58
2021/04/13 10:06:14;;;;;;;;;20.67;16.67;;;;;;;;12527600;28;8872;-58
2021/04/13 10:12:24;;;;;;;;;15.67;14.33;;;;;;;;12527612;28;8879;-59
2021/04/13 10:18:40;;;;;;;;;17.67;16.33;;;;;;;;12532346;28;8863;-58
2021/04/13 10:24:41;;;;;;;;;18.00;16.33;;;;;;;;12502122;28;8928;-57
2021/04/13 10:31:01;;;;;;;;;17.00;17.00;;;;;;;;12486802;28;8846;-56
2021/04/13 10:37:11;;;;;;;;;12.25;10.25;;;;;;;;12487161;28;9595;-57
2021/04/13 10:43:37;;;;;;;;;14.00;14.00;;;;;;;;12486085;28;8866;-56
2021/04/13 10:50:04;;;;;;;;;19.75;18.75;;;;;;;;12486458;28;9616;-55
2021/04/13 10:56:24;;;;;;;;;13.75;11.50;;;;;;;;12485478;28;8843;-59
2021/04/13 11:02:44;;;;;;;;;20.25;19.00;;;;;;;;12484375;28;8878;-58
2021/04/13 11:09:07;;;;;;;;;12.75;12.75;;;;;;;;12485065;28;8850;-57
2021/04/13 11:15:46;;;;;;;;;15.25;13.00;;;;;;;;12518960;28;8905;-58
2021/04/13 11:22:12;;;;;;;;;11.50;11.50;;;;;;;;12498555;28;9024;-57
2021/04/13 11:28:35;;;;;;;;;11.25;11.25;;;;;;;;12482889;28;8831;-56
2021/04/13 11:34:44;;;;;;;;;6.75;6.75;;;;;;;;12483689;28;8969;-57
2021/04/13 11:41:13;;;;;;;;;13.50;11.50;;;;;;;;12480741;28;8864;-58
2021/04/13 11:47:14;;;;;;;;;6.00;6.00;;;;;;;;12481660;28;8835;-58
2021/04/13 11:53:33;;;;;;;;;13.00;9.75;;;;;;;;12483167;28;8973;-57
2021/04/13 11:59:34;;;;;;;;;10.00;10.00;;;;;;;;12483743;28;8889;-57
2021/04/13 12:05:36;;;;;;;;;8.25;7.25;;;;;;;;12497119;28;8959;-58
2021/04/13 12:11:45;;;;;;;;;10.00;10.00;;;;;;;;12487014;28;8864;-57
2021/04/13 12:17:54;;;;;;;;;15.00;13.00;;;;;;;;12531492;28;8841;-57
2021/04/13 12:23:59;;;;;;;;;8.25;8.00;;;;;;;;12503409;28;8862;-56
2021/04/13 12:30:23;;;;;;;;;11.75;10.50;;;;;;;;12481588;28;8855;-57
2021/04/13 12:36:50;;;;;;;;;19.00;17.00;;;;;;;;12480386;28;8855;-58
2021/04/13 12:42:54;;;;;;;;;14.00;14.00;;;;;;;;12481105;28;8846;-57
2021/04/13 12:49:17;;;;;;;;;12.00;12.00;;;;;;;;12480493;28;8835;-55
2021/04/13 12:55:19;;;;;;;;;16.00;13.50;;;;;;;;12479448;28;8854;-55
2021/04/13 13:01:36;;;;;;;;;10.75;10.75;;;;;;;;12479581;28;8863;-58
2021/04/13 13:07:39;;;;;;;;;11.75;11.75;;;;;;;;12479677;28;8857;-55
2021/04/13 13:13:47;;;;;;;;;13.00;11.25;;;;;;;;12501311;28;8848;-55
2021/04/13 13:20:17;;;;;;;;;10.75;9.25;;;;;;;;12529442;28;9598;-57
2021/04/13 13:26:30;;;;;;;;;8.50;8.50;;;;;;;;12481284;28;8873;-57
2021/04/13 13:32:34;;;;;;;;;11.75;9.50;;;;;;;;12478988;28;8870;-58
2021/04/13 13:38:39;;;;;;;;;11.50;11.50;;;;;;;;12480485;28;8838;-56
2021/04/13 13:44:48;;;;;;;;;10.25;10.25;;;;;;;;12480289;28;8839;-57
2021/04/13 13:51:11;;;;;;;;;14.67;14.67;;;;;;;;12481109;28;8847;-58
2021/04/13 13:57:19;;;;;;;;;14.25;12.25;;;;;;;;12519996;28;8852;-60
2021/04/13 14:03:20;;;;;;;;;17.67;13.33;;;;;;;;12535572;28;8914;-56
2021/04/13 14:09:23;;;;;;;;;12.00;11.50;;;;;;;;12532828;28;8840;-58
2021/04/13 14:15:34;;;;;;;;;12.50;12.50;;;;;;;;12516859;28;8873;-59
2021/04/13 14:21:37;;;;;;;;;11.00;11.00;;;;;;;;12486837;28;8866;-57
2021/04/13 14:27:42;;;;;;;;;9.00;9.00;;;;;;;;12486627;28;8861;-55
2021/04/13 14:33:43;;;;;;;;;12.25;11.75;;;;;;;;12487618;28;8882;-56
2021/04/13 14:39:51;;;;;;;;;15.00;11.33;;;;;;;;12487155;28;8831;-55
2021/04/13 14:46:00;;;;;;;;;13.33;13.33;;;;;;;;12486500;28;8843;-56
2021/04/13 14:52:01;;;;;;;;;15.00;12.33;;;;;;;;12485816;28;8962;-57
2021/04/13 14:58:12;;;;;;;;;9.33;9.33;;;;;;;;12485620;28;8862;-56
2021/04/13 15:04:13;;;;;;;;;15.67;11.00;;;;;;;;12484888;28;8964;-55
2021/04/13 15:10:18;;;;;;;;;9.67;9.33;;;;;;;;12485310;28;8855;-58
2021/04/13 15:16:21;;;;;;;;;19.00;17.33;;;;;;;;12484902;28;8877;-58
2021/04/13 15:22:24;;;;;;;;;11.67;11.67;;;;;;;;12484372;28;8855;-57
2021/04/13 15:28:26;;;;;;;;;18.67;16.00;;;;;;;;12485116;28;8835;-57
2021/04/13 15:34:30;;;;;;;;;12.33;12.33;;;;;;;;12483935;28;8862;-56
2021/04/13 15:40:37;;;;;;;;;13.67;13.00;;;;;;;;12484338;28;8827;-59
2021/04/13 15:46:39;;;;;;;;;18.33;18.33;;;;;;;;12483929;28;8831;-57
2021/04/13 15:52:41;;;;;;;;;24.00;18.67;;;;;;;;12481956;28;8851;-57
2021/04/13 15:58:44;;;;;;;;;16.00;16.00;;;;;;;;12481137;28;8945;-57
2021/04/13 16:04:51;;;;;;;;;18.33;18.33;;;;;;;;12492802;28;8852;-57
2021/04/13 16:10:52;;;;;;;;;21.00;17.33;;;;;;;;12483782;28;8865;-59
2021/04/13 16:16:57;;;;;;;;;17.33;17.33;;;;;;;;12481251;28;8903;-56
2021/04/13 16:22:59;;;;;;;;;14.67;14.67;;;;;;;;12481660;28;9586;-57
2021/04/13 16:29:01;;;;;;;;;17.67;17.67;;;;;;;;12482306;28;8839;-54
2021/04/13 16:35:04;;;;;;;;;20.33;18.00;;;;;;;;12481129;28;8912;-55
2021/04/13 16:41:08;;;;;;;;;20.67;16.67;;;;;;;;12481322;28;8839;-57
2021/04/13 16:47:13;;;;;;;;;17.00;17.00;;;;;;;;12480397;28;8865;-55
2021/04/13 16:53:17;;;;;;;;;15.33;15.33;;;;;;;;12481151;28;9497;-56
2021/04/13 16:59:21;;;;;;;;;18.00;16.33;;;;;;;;12479998;28;8839;-54
2021/04/13 17:05:38;;;;;;;;;16.67;14.00;;;;;;;;12495729;28;9319;-56
2021/04/13 17:11:42;;;;;;;;;12.67;12.67;;;;;;;;12480002;28;8843;-55
2021/04/13 17:17:52;;;;;;;;;17.00;17.00;;;;;;;;12479804;28;8863;-54
2021/04/13 17:23:58;;;;;;;;;17.67;17.67;;;;;;;;12479473;28;8900;-56
2021/04/13 17:30:08;;;;;;;;;21.00;21.00;;;;;;;;12487648;28;8822;-55
2021/04/13 17:36:31;;;;;;;;;22.33;17.67;;;;;;;;12489882;28;8847;-62
2021/04/13 17:42:48;;;;;;;;;17.67;17.67;;;;;;;;12488852;28;8847;-56
2021/04/13 17:48:52;;;;;;;;;22.00;21.00;;;;;;;;12490519;28;8846;-53
2021/04/13 17:55:03;;;;;;;;;24.67;22.67;;;;;;;;12489230;28;8851;-54
2021/04/13 18:01:05;;;;;;;;;26.67;25.00;;;;;;;;12488580;28;8835;-58
2021/04/13 18:07:11;;;;;;;;;28.67;26.00;;;;;;;;12487603;28;9323;-54
2021/04/13 18:13:22;;;;;;;;;29.67;23.67;;;;;;;;12487538;28;8847;-56
2021/04/13 18:19:32;;;;;;;;;23.00;23.00;;;;;;;;12487891;28;9165;-56
2021/04/13 18:25:40;;;;;;;;;29.00;26.33;;;;;;;;12487012;28;8839;-55
2021/04/13 18:31:58;;;;;;;;;30.67;28.00;;;;;;;;12486835;28;9639;-54
2021/04/13 18:38:15;;;;;;;;;28.00;25.00;;;;;;;;12486008;28;8872;-57
2021/04/13 18:44:18;;;;;;;;;34.00;29.00;;;;;;;;12486597;28;8849;-53
2021/04/13 18:50:34;;;;;;;;;30.33;29.00;;;;;;;;12486368;28;8839;-54
2021/04/13 18:56:40;;;;;;;;;28.33;27.67;;;;;;;;12485503;28;8862;-57
2021/04/13 19:02:54;;;;;;;;;32.33;29.00;;;;;;;;12485599;28;8850;-56
2021/04/13 19:08:59;;;;;;;;;36.67;35.00;;;;;;;;12483716;28;9089;-56
2021/04/13 19:15:23;;;;;;;;;29.00;28.00;;;;;;;;12485484;28;8839;-57
2021/04/13 19:21:30;;;;;;;;;33.67;32.00;;;;;;;;12483546;28;8855;-56
2021/04/13 19:27:44;;;;;;;;;35.75;33.50;;;;;;;;12484909;28;8850;-55
2021/04/13 19:33:48;;;;;;;;;34.25;30.75;;;;;;;;12484731;28;8858;-52
2021/04/13 19:39:51;;;;;;;;;28.33;26.33;;;;;;;;12483741;28;8847;-57
2021/04/13 19:45:56;;;;;;;;;36.25;34.50;;;;;;;;12484561;28;8843;-56
2021/04/13 19:52:07;;;;;;;;;36.33;35.67;;;;;;;;12482833;28;8974;-53
2021/04/13 19:58:15;;;;;;;;;37.50;34.75;;;;;;;;12483226;28;8834;-58
2021/04/13 20:04:26;;;;;;;;;40.00;34.75;;;;;;;;12482591;28;8863;-55
2021/04/13 20:10:30;;;;;;;;;36.25;34.75;;;;;;;;12482411;28;8847;-52
2021/04/13 20:16:58;;;;;;;;;41.00;37.50;;;;;;;;12498266;28;8847;-55
2021/04/13 20:23:19;;;;;;;;;45.25;40.75;;;;;;;;12481055;28;8851;-55
2021/04/13 20:29:41;;;;;;;;;44.00;37.25;;;;;;;;12481722;28;8858;-53
2021/04/13 20:42:16;;;;;;;;;42.75;37.75;;;;;;;;12481547;28;8843;-57
2021/04/13 20:48:27;;;;;;;;;32.50;29.00;;;;;;;;12480427;28;8835;-55
2021/04/13 20:54:40;;;;;;;;;26.33;24.67;;;;;;;;12481304;28;9583;-54
2021/04/13 21:01:02;;;;;;;;;29.33;25.33;;;;;;;;12480721;28;9588;-56
2021/04/13 21:07:22;;;;;;;;;26.50;26.50;;;;;;;;12479893;28;8867;-51
2021/04/13 21:13:30;;;;;;;;;35.75;31.75;;;;;;;;12495247;28;8886;-57
2021/04/13 21:19:32;;;;;;;;;28.75;28.75;;;;;;;;12481057;28;8854;-50
2021/04/13 21:25:40;;;;;;;;;33.25;32.50;;;;;;;;12480011;28;8842;-54
2021/04/13 21:32:17;;;;;;;;;31.75;28.00;;;;;;;;12479775;28;9698;-52
2021/04/13 21:38:58;;;;;;;;;20.50;20.25;;;;;;;;12478996;28;8945;-54
2021/04/13 21:45:10;;;;;;;;;30.50;26.00;;;;;;;;12472949;28;8934;-51
2021/04/13 21:51:16;;;;;;;;;23.75;21.00;;;;;;;;12479359;28;8831;-53
2021/04/13 21:57:25;;;;;;;;;24.75;22.00;;;;;;;;12478779;28;8838;-53
2021/04/13 22:03:31;;;;;;;;;23.75;22.25;;;;;;;;12478771;28;8843;-52
2021/04/13 22:09:33;;;;;;;;;21.25;19.75;;;;;;;;12479147;28;8838;-55
2021/04/13 22:15:34;;;;;;;;;24.25;20.75;;;;;;;;12485406;28;8859;-56
2021/04/13 22:22:01;;;;;;;;;26.00;23.00;;;;;;;;12487971;28;8850;-55
2021/04/13 22:28:20;;;;;;;;;19.00;18.75;;;;;;;;12487727;28;8861;-52
2021/04/13 22:34:35;;;;;;;;;21.75;19.00;;;;;;;;12486908;28;8870;-51
2021/04/13 22:40:40;;;;;;;;;15.50;15.50;;;;;;;;12487194;28;8844;-54
2021/04/13 22:46:44;;;;;;;;;21.00;20.25;;;;;;;;12487101;28;8874;-52
2021/04/13 22:53:25;;;;;;;;;24.50;23.25;;;;;;;;12486647;28;9750;-52
2021/04/13 22:59:35;;;;;;;;;23.25;20.50;;;;;;;;12485702;28;8847;-53
2021/04/13 23:05:36;;;;;;;;;22.50;20.25;;;;;;;;12485408;28;8866;-52
2021/04/13 23:11:38;;;;;;;;;26.50;25.00;;;;;;;;12486471;28;8827;-55
2021/04/13 23:17:40;;;;;;;;;24.25;20.75;;;;;;;;12484916;28;9028;-56
2021/04/13 23:23:42;;;;;;;;;27.00;24.25;;;;;;;;12484330;28;8843;-54
2021/04/13 23:29:43;;;;;;;;;29.50;29.50;;;;;;;;12485320;28;8835;-53
2021/04/13 23:35:45;;;;;;;;;39.25;36.25;;;;;;;;12484326;28;9579;-52
2021/04/13 23:41:46;;;;;;;;;34.75;33.00;;;;;;;;12484817;28;9584;-53
2021/04/13 23:47:48;;;;;;;;;41.00;37.25;;;;;;;;12481974;28;8835;-51
2021/04/13 23:53:52;;;;;;;;;52.00;44.75;;;;;;;;12483028;28;8977;-53
2021/04/13 23:59:53;;;;;;;;;50.75;44.50;;;;;;;;12483504;28;8870;-52
